Richmond, Virginia
Current Conditions -  °F | °C
As of 4:54 PM on Friday 19 Dec 2014 (Local Time) from KRIC Reporting Station
Broken Clouds Broken Clouds  
Wind Chill: 38°   Ceiling: 30000
Heat Index: 41°   Visibility: 10mi
Dew Point: 24°   Wind: 5mph
Humidity: 51%   Direction: 10°N
Pressure: 30.16"   Gusts: NA
Location:  37.54°N, 77.43°W
Report Text: KRIC 192154Z 01004KT 10SM BKN300 05/M04 A3016 RMK AO2 SLP220 T00501044
Loading
Personal Weather Stations






























Interactive Weather Map New forecast layout! Learn more

10-Day Weather Forecast

Advertisements
Track Severe Weather on mobile